sensor_id;sensor_type;location;lat;lon;timestamp;P1;durP1;ratioP1;P2;durP2;ratioP2
13649;SDS011;6898;50.918;4.688;2022-08-25T00:02:07;7.65;;;6.00;;
13649;SDS011;6898;50.918;4.688;2022-08-25T00:04:38;7.28;;;5.90;;
13649;SDS011;6898;50.918;4.688;2022-08-25T00:07:07;7.07;;;5.70;;
13649;SDS011;6898;50.918;4.688;2022-08-25T00:09:36;6.70;;;6.03;;
13649;SDS011;6898;50.918;4.688;2022-08-25T00:12:04;8.02;;;5.80;;
13649;SDS011;6898;50.918;4.688;2022-08-25T00:14:34;7.93;;;5.72;;
13649;SDS011;6898;50.918;4.688;2022-08-25T00:17:04;6.50;;;5.82;;
13649;SDS011;6898;50.918;4.688;2022-08-25T00:19:34;6.80;;;5.65;;
13649;SDS011;6898;50.918;4.688;2022-08-25T00:22:06;6.78;;;6.10;;
13649;SDS011;6898;50.918;4.688;2022-08-25T00:24:34;7.00;;;5.80;;
13649;SDS011;6898;50.918;4.688;2022-08-25T00:27:03;7.70;;;5.88;;
13649;SDS011;6898;50.918;4.688;2022-08-25T00:29:32;7.30;;;6.00;;
13649;SDS011;6898;50.918;4.688;2022-08-25T00:32:03;6.90;;;6.10;;
13649;SDS011;6898;50.918;4.688;2022-08-25T00:34:33;8.20;;;6.18;;
13649;SDS011;6898;50.918;4.688;2022-08-25T00:37:03;6.88;;;5.90;;
13649;SDS011;6898;50.918;4.688;2022-08-25T00:39:34;7.45;;;6.30;;
13649;SDS011;6898;50.918;4.688;2022-08-25T00:42:03;7.35;;;6.20;;
13649;SDS011;6898;50.918;4.688;2022-08-25T00:44:32;7.03;;;6.05;;
13649;SDS011;6898;50.918;4.688;2022-08-25T00:47:01;9.82;;;6.60;;
13649;SDS011;6898;50.918;4.688;2022-08-25T00:49:31;6.85;;;6.18;;
13649;SDS011;6898;50.918;4.688;2022-08-25T00:52:01;7.68;;;6.00;;
13649;SDS011;6898;50.918;4.688;2022-08-25T00:54:31;6.88;;;5.93;;
13649;SDS011;6898;50.918;4.688;2022-08-25T00:57:02;6.95;;;6.28;;
13649;SDS011;6898;50.918;4.688;2022-08-25T00:59:32;6.80;;;6.10;;
13649;SDS011;6898;50.918;4.688;2022-08-25T01:02:01;7.60;;;6.25;;
13649;SDS011;6898;50.918;4.688;2022-08-25T01:04:30;8.95;;;6.43;;
13649;SDS011;6898;50.918;4.688;2022-08-25T01:06:58;7.70;;;6.97;;
13649;SDS011;6898;50.918;4.688;2022-08-25T01:09:27;7.60;;;6.60;;
13649;SDS011;6898;50.918;4.688;2022-08-25T01:11:58;7.45;;;6.75;;
13649;SDS011;6898;50.918;4.688;2022-08-25T01:14:28;7.80;;;7.00;;
13649;SDS011;6898;50.918;4.688;2022-08-25T01:16:58;8.13;;;6.82;;
13649;SDS011;6898;50.918;4.688;2022-08-25T01:19:26;7.13;;;6.40;;
13649;SDS011;6898;50.918;4.688;2022-08-25T01:21:56;8.95;;;7.32;;
13649;SDS011;6898;50.918;4.688;2022-08-25T01:24:28;8.10;;;7.30;;
13649;SDS011;6898;50.918;4.688;2022-08-25T01:26:58;8.30;;;7.60;;
13649;SDS011;6898;50.918;4.688;2022-08-25T01:29:26;8.50;;;7.55;;
13649;SDS011;6898;50.918;4.688;2022-08-25T01:31:56;8.95;;;7.70;;
13649;SDS011;6898;50.918;4.688;2022-08-25T01:34:26;9.57;;;7.70;;
13649;SDS011;6898;50.918;4.688;2022-08-25T01:36:57;8.98;;;7.90;;
13649;SDS011;6898;50.918;4.688;2022-08-25T01:39:26;8.18;;;7.40;;
13649;SDS011;6898;50.918;4.688;2022-08-25T01:42:03;7.95;;;6.95;;
13649;SDS011;6898;50.918;4.688;2022-08-25T01:44:38;10.07;;;8.07;;
13649;SDS011;6898;50.918;4.688;2022-08-25T01:47:06;9.60;;;8.40;;
13649;SDS011;6898;50.918;4.688;2022-08-25T01:49:35;8.93;;;8.02;;
13649;SDS011;6898;50.918;4.688;2022-08-25T01:52:06;10.57;;;8.20;;
13649;SDS011;6898;50.918;4.688;2022-08-25T01:54:37;10.68;;;8.45;;
13649;SDS011;6898;50.918;4.688;2022-08-25T01:57:06;9.35;;;8.23;;
13649;SDS011;6898;50.918;4.688;2022-08-25T01:59:34;9.25;;;8.45;;
13649;SDS011;6898;50.918;4.688;2022-08-25T02:02:03;9.32;;;8.43;;
13649;SDS011;6898;50.918;4.688;2022-08-25T02:04:32;10.60;;;8.48;;
13649;SDS011;6898;50.918;4.688;2022-08-25T02:07:01;9.50;;;8.43;;
13649;SDS011;6898;50.918;4.688;2022-08-25T02:09:34;9.43;;;8.60;;
13649;SDS011;6898;50.918;4.688;2022-08-25T02:12:03;10.15;;;8.60;;
13649;SDS011;6898;50.918;4.688;2022-08-25T02:14:32;9.57;;;8.60;;
13649;SDS011;6898;50.918;4.688;2022-08-25T02:17:03;8.85;;;8.02;;
13649;SDS011;6898;50.918;4.688;2022-08-25T02:19:32;9.40;;;8.43;;
13649;SDS011;6898;50.918;4.688;2022-08-25T02:22:00;8.80;;;7.90;;
13649;SDS011;6898;50.918;4.688;2022-08-25T02:24:29;9.20;;;8.30;;
13649;SDS011;6898;50.918;4.688;2022-08-25T02:26:59;9.98;;;8.13;;
13649;SDS011;6898;50.918;4.688;2022-08-25T02:29:29;9.48;;;8.10;;
13649;SDS011;6898;50.918;4.688;2022-08-25T02:31:57;9.40;;;7.90;;
13649;SDS011;6898;50.918;4.688;2022-08-25T02:34:26;8.63;;;7.70;;
13649;SDS011;6898;50.918;4.688;2022-08-25T02:36:55;9.75;;;7.72;;
13649;SDS011;6898;50.918;4.688;2022-08-25T02:39:23;8.50;;;7.45;;
13649;SDS011;6898;50.918;4.688;2022-08-25T02:41:52;9.98;;;7.65;;
13649;SDS011;6898;50.918;4.688;2022-08-25T02:44:22;8.70;;;7.38;;
13649;SDS011;6898;50.918;4.688;2022-08-25T02:46:50;8.17;;;7.33;;
13649;SDS011;6898;50.918;4.688;2022-08-25T02:49:19;8.35;;;7.20;;
13649;SDS011;6898;50.918;4.688;2022-08-25T02:51:47;8.68;;;7.50;;
13649;SDS011;6898;50.918;4.688;2022-08-25T02:54:16;8.77;;;7.30;;
13649;SDS011;6898;50.918;4.688;2022-08-25T02:56:44;9.35;;;7.68;;
13649;SDS011;6898;50.918;4.688;2022-08-25T02:59:13;9.47;;;7.37;;
13649;SDS011;6898;50.918;4.688;2022-08-25T03:01:44;8.32;;;7.53;;
13649;SDS011;6898;50.918;4.688;2022-08-25T03:04:13;10.57;;;7.63;;
13649;SDS011;6898;50.918;4.688;2022-08-25T03:06:41;8.82;;;7.93;;
13649;SDS011;6898;50.918;4.688;2022-08-25T03:09:09;10.07;;;7.70;;
13649;SDS011;6898;50.918;4.688;2022-08-25T03:11:38;11.35;;;7.70;;
13649;SDS011;6898;50.918;4.688;2022-08-25T03:14:07;9.95;;;7.93;;
13649;SDS011;6898;50.918;4.688;2022-08-25T03:16:37;8.32;;;7.45;;
13649;SDS011;6898;50.918;4.688;2022-08-25T03:19:09;9.25;;;7.72;;
13649;SDS011;6898;50.918;4.688;2022-08-25T03:21:38;10.52;;;8.13;;
13649;SDS011;6898;50.918;4.688;2022-08-25T03:24:06;9.93;;;7.78;;
13649;SDS011;6898;50.918;4.688;2022-08-25T03:26:35;9.57;;;8.18;;
13649;SDS011;6898;50.918;4.688;2022-08-25T03:29:21;9.88;;;7.80;;
13649;SDS011;6898;50.918;4.688;2022-08-25T03:31:50;9.77;;;7.40;;
13649;SDS011;6898;50.918;4.688;2022-08-25T03:34:21;10.23;;;7.80;;
13649;SDS011;6898;50.918;4.688;2022-08-25T03:36:51;12.52;;;7.53;;
13649;SDS011;6898;50.918;4.688;2022-08-25T03:39:20;10.18;;;7.47;;
13649;SDS011;6898;50.918;4.688;2022-08-25T03:41:49;7.97;;;7.18;;
13649;SDS011;6898;50.918;4.688;2022-08-25T03:44:18;7.95;;;6.90;;
13649;SDS011;6898;50.918;4.688;2022-08-25T03:46:47;9.70;;;6.90;;
13649;SDS011;6898;50.918;4.688;2022-08-25T03:49:18;7.70;;;6.90;;
13649;SDS011;6898;50.918;4.688;2022-08-25T03:51:50;8.15;;;7.03;;
13649;SDS011;6898;50.918;4.688;2022-08-25T03:54:20;11.40;;;7.47;;
13649;SDS011;6898;50.918;4.688;2022-08-25T03:56:48;8.73;;;7.40;;
13649;SDS011;6898;50.918;4.688;2022-08-25T03:59:17;9.38;;;6.90;;
13649;SDS011;6898;50.918;4.688;2022-08-25T04:01:45;9.10;;;6.77;;
13649;SDS011;6898;50.918;4.688;2022-08-25T04:04:16;10.68;;;6.80;;
13649;SDS011;6898;50.918;4.688;2022-08-25T04:06:45;8.30;;;7.00;;
13649;SDS011;6898;50.918;4.688;2022-08-25T04:09:15;10.10;;;7.22;;
13649;SDS011;6898;50.918;4.688;2022-08-25T04:11:43;8.68;;;6.65;;
13649;SDS011;6898;50.918;4.688;2022-08-25T04:14:12;8.40;;;6.28;;
13649;SDS011;6898;50.918;4.688;2022-08-25T04:16:40;10.50;;;6.30;;
13649;SDS011;6898;50.918;4.688;2022-08-25T04:19:09;8.77;;;6.57;;
13649;SDS011;6898;50.918;4.688;2022-08-25T04:21:38;7.45;;;6.45;;
13649;SDS011;6898;50.918;4.688;2022-08-25T04:24:08;7.97;;;6.70;;
13649;SDS011;6898;50.918;4.688;2022-08-25T04:26:39;8.85;;;6.80;;
13649;SDS011;6898;50.918;4.688;2022-08-25T04:29:08;8.15;;;7.18;;
13649;SDS011;6898;50.918;4.688;2022-08-25T04:31:37;7.10;;;6.40;;
13649;SDS011;6898;50.918;4.688;2022-08-25T04:34:06;7.68;;;6.88;;
13649;SDS011;6898;50.918;4.688;2022-08-25T04:36:35;7.32;;;6.45;;
13649;SDS011;6898;50.918;4.688;2022-08-25T04:39:04;10.40;;;6.50;;
13649;SDS011;6898;50.918;4.688;2022-08-25T04:41:32;8.05;;;6.43;;
13649;SDS011;6898;50.918;4.688;2022-08-25T04:44:02;8.90;;;6.80;;
13649;SDS011;6898;50.918;4.688;2022-08-25T04:46:31;9.07;;;6.60;;
13649;SDS011;6898;50.918;4.688;2022-08-25T04:49:01;8.65;;;6.45;;
13649;SDS011;6898;50.918;4.688;2022-08-25T04:51:30;7.85;;;6.88;;
13649;SDS011;6898;50.918;4.688;2022-08-25T04:54:00;7.77;;;6.50;;
13649;SDS011;6898;50.918;4.688;2022-08-25T04:56:30;7.40;;;6.27;;
13649;SDS011;6898;50.918;4.688;2022-08-25T04:59:00;7.20;;;5.50;;
13649;SDS011;6898;50.918;4.688;2022-08-25T05:01:31;7.45;;;5.80;;
13649;SDS011;6898;50.918;4.688;2022-08-25T05:04:00;7.25;;;5.72;;
13649;SDS011;6898;50.918;4.688;2022-08-25T05:06:29;9.30;;;5.60;;
13649;SDS011;6898;50.918;4.688;2022-08-25T05:08:58;8.53;;;5.60;;
13649;SDS011;6898;50.918;4.688;2022-08-25T05:11:27;10.40;;;5.63;;
13649;SDS011;6898;50.918;4.688;2022-08-25T05:13:56;7.38;;;5.53;;
13649;SDS011;6898;50.918;4.688;2022-08-25T05:16:24;6.85;;;5.72;;
13649;SDS011;6898;50.918;4.688;2022-08-25T05:18:54;8.07;;;5.40;;
13649;SDS011;6898;50.918;4.688;2022-08-25T05:21:25;7.75;;;5.28;;
13649;SDS011;6898;50.918;4.688;2022-08-25T05:23:56;7.32;;;5.40;;
13649;SDS011;6898;50.918;4.688;2022-08-25T05:26:26;7.38;;;5.35;;
13649;SDS011;6898;50.918;4.688;2022-08-25T05:28:56;8.60;;;5.40;;
13649;SDS011;6898;50.918;4.688;2022-08-25T05:31:25;9.68;;;5.40;;
13649;SDS011;6898;50.918;4.688;2022-08-25T05:33:56;7.15;;;5.20;;
13649;SDS011;6898;50.918;4.688;2022-08-25T05:36:25;10.38;;;5.75;;
13649;SDS011;6898;50.918;4.688;2022-08-25T05:38:54;7.72;;;5.85;;
13649;SDS011;6898;50.918;4.688;2022-08-25T05:41:24;7.68;;;6.07;;
13649;SDS011;6898;50.918;4.688;2022-08-25T05:43:53;10.60;;;5.70;;
13649;SDS011;6898;50.918;4.688;2022-08-25T05:46:22;8.13;;;5.85;;
13649;SDS011;6898;50.918;4.688;2022-08-25T05:48:50;7.30;;;5.93;;
13649;SDS011;6898;50.918;4.688;2022-08-25T05:51:20;8.18;;;6.03;;
13649;SDS011;6898;50.918;4.688;2022-08-25T05:53:49;8.98;;;6.00;;
13649;SDS011;6898;50.918;4.688;2022-08-25T05:56:18;8.07;;;5.63;;
13649;SDS011;6898;50.918;4.688;2022-08-25T05:58:47;8.30;;;5.70;;
13649;SDS011;6898;50.918;4.688;2022-08-25T06:01:20;7.82;;;5.32;;
13649;SDS011;6898;50.918;4.688;2022-08-25T06:04:06;7.60;;;5.40;;
13649;SDS011;6898;50.918;4.688;2022-08-25T06:06:36;6.87;;;5.57;;
13649;SDS011;6898;50.918;4.688;2022-08-25T06:09:04;8.52;;;5.60;;
13649;SDS011;6898;50.918;4.688;2022-08-25T06:11:35;9.15;;;5.43;;
13649;SDS011;6898;50.918;4.688;2022-08-25T06:14:05;8.27;;;5.30;;
13649;SDS011;6898;50.918;4.688;2022-08-25T06:16:34;8.20;;;5.38;;
13649;SDS011;6898;50.918;4.688;2022-08-25T06:19:02;8.50;;;5.15;;
13649;SDS011;6898;50.918;4.688;2022-08-25T06:21:31;10.67;;;5.37;;
13649;SDS011;6898;50.918;4.688;2022-08-25T06:24:00;8.32;;;5.00;;
13649;SDS011;6898;50.918;4.688;2022-08-25T06:26:29;8.73;;;4.82;;
13649;SDS011;6898;50.918;4.688;2022-08-25T06:28:58;7.43;;;4.90;;
13649;SDS011;6898;50.918;4.688;2022-08-25T06:31:26;9.70;;;5.00;;
13649;SDS011;6898;50.918;4.688;2022-08-25T06:33:55;5.40;;;4.22;;
13649;SDS011;6898;50.918;4.688;2022-08-25T06:36:24;8.80;;;4.60;;
13649;SDS011;6898;50.918;4.688;2022-08-25T06:38:52;8.93;;;4.50;;
13649;SDS011;6898;50.918;4.688;2022-08-25T06:41:22;7.20;;;4.60;;
13649;SDS011;6898;50.918;4.688;2022-08-25T06:43:50;8.00;;;4.30;;
13649;SDS011;6898;50.918;4.688;2022-08-25T06:46:21;6.63;;;4.38;;
13649;SDS011;6898;50.918;4.688;2022-08-25T06:48:52;8.07;;;4.50;;
13649;SDS011;6898;50.918;4.688;2022-08-25T06:51:22;7.88;;;4.30;;
13649;SDS011;6898;50.918;4.688;2022-08-25T06:53:52;6.63;;;4.55;;
13649;SDS011;6898;50.918;4.688;2022-08-25T06:56:22;6.65;;;4.40;;
13649;SDS011;6898;50.918;4.688;2022-08-25T06:58:51;9.63;;;4.38;;
13649;SDS011;6898;50.918;4.688;2022-08-25T07:01:20;8.10;;;4.13;;
13649;SDS011;6898;50.918;4.688;2022-08-25T07:03:52;8.50;;;4.53;;
13649;SDS011;6898;50.918;4.688;2022-08-25T07:06:23;6.93;;;4.20;;
13649;SDS011;6898;50.918;4.688;2022-08-25T07:08:52;12.25;;;4.35;;
13649;SDS011;6898;50.918;4.688;2022-08-25T07:11:23;10.20;;;4.50;;
13649;SDS011;6898;50.918;4.688;2022-08-25T07:13:51;6.53;;;4.20;;
13649;SDS011;6898;50.918;4.688;2022-08-25T07:16:20;6.97;;;4.15;;
13649;SDS011;6898;50.918;4.688;2022-08-25T07:18:49;4.80;;;4.10;;
13649;SDS011;6898;50.918;4.688;2022-08-25T07:21:21;7.50;;;4.20;;
13649;SDS011;6898;50.918;4.688;2022-08-25T07:23:50;4.75;;;3.92;;
13649;SDS011;6898;50.918;4.688;2022-08-25T07:26:21;6.38;;;4.20;;
13649;SDS011;6898;50.918;4.688;2022-08-25T07:29:04;6.18;;;3.90;;
13649;SDS011;6898;50.918;4.688;2022-08-25T07:31:33;7.43;;;4.10;;
13649;SDS011;6898;50.918;4.688;2022-08-25T07:34:02;8.15;;;4.30;;
13649;SDS011;6898;50.918;4.688;2022-08-25T07:36:48;6.25;;;4.20;;
13649;SDS011;6898;50.918;4.688;2022-08-25T07:39:16;7.28;;;4.22;;
13649;SDS011;6898;50.918;4.688;2022-08-25T07:41:45;7.32;;;3.90;;
13649;SDS011;6898;50.918;4.688;2022-08-25T07:44:14;6.93;;;3.80;;
13649;SDS011;6898;50.918;4.688;2022-08-25T07:46:45;7.63;;;4.07;;
13649;SDS011;6898;50.918;4.688;2022-08-25T07:49:19;6.35;;;4.05;;
13649;SDS011;6898;50.918;4.688;2022-08-25T07:51:47;6.80;;;4.03;;
13649;SDS011;6898;50.918;4.688;2022-08-25T07:54:16;8.80;;;3.80;;
13649;SDS011;6898;50.918;4.688;2022-08-25T07:56:44;10.20;;;4.10;;
13649;SDS011;6898;50.918;4.688;2022-08-25T07:59:14;7.13;;;3.77;;
13649;SDS011;6898;50.918;4.688;2022-08-25T08:01:43;6.17;;;3.70;;
13649;SDS011;6898;50.918;4.688;2022-08-25T08:04:12;9.07;;;3.88;;
13649;SDS011;6898;50.918;4.688;2022-08-25T08:06:40;8.50;;;3.92;;
13649;SDS011;6898;50.918;4.688;2022-08-25T08:09:09;7.03;;;3.50;;
13649;SDS011;6898;50.918;4.688;2022-08-25T08:11:39;6.93;;;3.80;;
13649;SDS011;6898;50.918;4.688;2022-08-25T08:14:12;5.22;;;3.70;;
13649;SDS011;6898;50.918;4.688;2022-08-25T08:16:43;4.95;;;3.58;;
13649;SDS011;6898;50.918;4.688;2022-08-25T08:19:11;5.82;;;3.70;;
13649;SDS011;6898;50.918;4.688;2022-08-25T08:21:40;6.30;;;3.63;;
13649;SDS011;6898;50.918;4.688;2022-08-25T08:24:10;5.80;;;3.50;;
13649;SDS011;6898;50.918;4.688;2022-08-25T08:26:45;6.80;;;3.72;;
13649;SDS011;6898;50.918;4.688;2022-08-25T08:29:23;5.47;;;3.60;;
13649;SDS011;6898;50.918;4.688;2022-08-25T08:31:53;7.57;;;3.42;;
13649;SDS011;6898;50.918;4.688;2022-08-25T08:34:22;10.32;;;3.88;;
13649;SDS011;6898;50.918;4.688;2022-08-25T08:36:50;10.63;;;3.75;;
13649;SDS011;6898;50.918;4.688;2022-08-25T08:39:19;6.38;;;3.80;;
13649;SDS011;6898;50.918;4.688;2022-08-25T08:41:52;6.97;;;3.50;;
13649;SDS011;6898;50.918;4.688;2022-08-25T08:44:46;8.82;;;3.75;;
13649;SDS011;6898;50.918;4.688;2022-08-25T08:47:24;7.75;;;3.60;;
13649;SDS011;6898;50.918;4.688;2022-08-25T08:49:58;6.65;;;3.40;;
13649;SDS011;6898;50.918;4.688;2022-08-25T08:52:32;5.30;;;3.30;;
13649;SDS011;6898;50.918;4.688;2022-08-25T08:55:04;5.57;;;3.40;;
13649;SDS011;6898;50.918;4.688;2022-08-25T08:57:38;7.03;;;3.60;;
13649;SDS011;6898;50.918;4.688;2022-08-25T09:00:08;8.43;;;3.80;;
13649;SDS011;6898;50.918;4.688;2022-08-25T09:02:39;7.20;;;3.70;;
13649;SDS011;6898;50.918;4.688;2022-08-25T09:05:10;8.38;;;3.58;;
13649;SDS011;6898;50.918;4.688;2022-08-25T09:07:40;7.05;;;3.50;;
13649;SDS011;6898;50.918;4.688;2022-08-25T09:10:12;9.27;;;3.53;;
13649;SDS011;6898;50.918;4.688;2022-08-25T09:12:42;6.80;;;3.63;;
13649;SDS011;6898;50.918;4.688;2022-08-25T09:15:15;6.80;;;3.47;;
13649;SDS011;6898;50.918;4.688;2022-08-25T09:17:55;8.48;;;3.50;;
13649;SDS011;6898;50.918;4.688;2022-08-25T09:20:35;6.15;;;3.42;;
13649;SDS011;6898;50.918;4.688;2022-08-25T09:23:08;7.40;;;3.25;;
13649;SDS011;6898;50.918;4.688;2022-08-25T09:25:41;9.05;;;3.10;;
13649;SDS011;6898;50.918;4.688;2022-08-25T09:28:17;6.30;;;3.30;;
13649;SDS011;6898;50.918;4.688;2022-08-25T09:30:48;6.53;;;3.20;;
13649;SDS011;6898;50.918;4.688;2022-08-25T09:33:22;6.75;;;3.15;;
13649;SDS011;6898;50.918;4.688;2022-08-25T09:35:51;5.60;;;3.40;;
13649;SDS011;6898;50.918;4.688;2022-08-25T09:38:20;5.15;;;3.10;;
13649;SDS011;6898;50.918;4.688;2022-08-25T09:40:50;6.40;;;3.13;;
13649;SDS011;6898;50.918;4.688;2022-08-25T09:43:19;5.10;;;3.10;;
13649;SDS011;6898;50.918;4.688;2022-08-25T09:45:49;7.25;;;2.90;;
13649;SDS011;6898;50.918;4.688;2022-08-25T09:48:25;8.55;;;3.10;;
13649;SDS011;6898;50.918;4.688;2022-08-25T09:50:56;6.15;;;3.00;;
13649;SDS011;6898;50.918;4.688;2022-08-25T09:53:25;7.30;;;3.00;;
13649;SDS011;6898;50.918;4.688;2022-08-25T09:55:56;5.50;;;3.10;;
13649;SDS011;6898;50.918;4.688;2022-08-25T09:58:26;6.53;;;2.90;;
13649;SDS011;6898;50.918;4.688;2022-08-25T10:01:02;5.72;;;2.88;;
13649;SDS011;6898;50.918;4.688;2022-08-25T10:03:33;7.88;;;3.00;;
13649;SDS011;6898;50.918;4.688;2022-08-25T10:06:03;5.97;;;2.92;;
13649;SDS011;6898;50.918;4.688;2022-08-25T10:08:34;6.57;;;2.92;;
13649;SDS011;6898;50.918;4.688;2022-08-25T10:11:05;7.93;;;3.00;;
13649;SDS011;6898;50.918;4.688;2022-08-25T10:13:37;4.85;;;2.75;;
13649;SDS011;6898;50.918;4.688;2022-08-25T10:16:07;5.13;;;2.80;;
13649;SDS011;6898;50.918;4.688;2022-08-25T10:18:37;4.07;;;2.70;;
13649;SDS011;6898;50.918;4.688;2022-08-25T10:21:08;5.03;;;2.70;;
13649;SDS011;6898;50.918;4.688;2022-08-25T10:23:39;3.55;;;2.72;;
13649;SDS011;6898;50.918;4.688;2022-08-25T10:26:12;6.65;;;2.70;;
13649;SDS011;6898;50.918;4.688;2022-08-25T10:28:46;5.95;;;2.70;;
13649;SDS011;6898;50.918;4.688;2022-08-25T10:31:20;4.25;;;2.85;;
13649;SDS011;6898;50.918;4.688;2022-08-25T10:33:56;4.22;;;2.85;;
13649;SDS011;6898;50.918;4.688;2022-08-25T10:36:29;6.07;;;2.75;;
13649;SDS011;6898;50.918;4.688;2022-08-25T10:39:01;3.65;;;2.40;;
13649;SDS011;6898;50.918;4.688;2022-08-25T10:41:36;4.32;;;2.70;;
13649;SDS011;6898;50.918;4.688;2022-08-25T10:44:12;6.13;;;2.73;;
13649;SDS011;6898;50.918;4.688;2022-08-25T10:46:57;3.70;;;2.60;;
13649;SDS011;6898;50.918;4.688;2022-08-25T10:49:34;6.07;;;2.50;;
13649;SDS011;6898;50.918;4.688;2022-08-25T10:52:05;4.65;;;2.50;;
13649;SDS011;6898;50.918;4.688;2022-08-25T10:54:38;4.85;;;2.63;;
13649;SDS011;6898;50.918;4.688;2022-08-25T10:57:12;5.18;;;2.50;;
13649;SDS011;6898;50.918;4.688;2022-08-25T10:59:46;4.80;;;2.80;;
13649;SDS011;6898;50.918;4.688;2022-08-25T11:05:06;3.42;;;2.60;;
13649;SDS011;6898;50.918;4.688;2022-08-25T11:07:37;4.07;;;2.57;;
13649;SDS011;6898;50.918;4.688;2022-08-25T11:10:10;5.97;;;2.40;;
13649;SDS011;6898;50.918;4.688;2022-08-25T11:12:40;5.97;;;2.42;;
13649;SDS011;6898;50.918;4.688;2022-08-25T11:15:11;5.83;;;2.50;;
13649;SDS011;6898;50.918;4.688;2022-08-25T11:17:42;3.65;;;2.50;;
13649;SDS011;6898;50.918;4.688;2022-08-25T11:20:15;4.68;;;2.45;;
13649;SDS011;6898;50.918;4.688;2022-08-25T11:22:46;4.60;;;2.50;;
13649;SDS011;6898;50.918;4.688;2022-08-25T11:25:17;3.20;;;2.60;;
13649;SDS011;6898;50.918;4.688;2022-08-25T11:27:47;5.97;;;2.70;;
13649;SDS011;6898;50.918;4.688;2022-08-25T11:30:17;3.40;;;2.50;;
13649;SDS011;6898;50.918;4.688;2022-08-25T11:32:47;5.07;;;2.50;;
13649;SDS011;6898;50.918;4.688;2022-08-25T11:35:19;4.07;;;2.60;;
13649;SDS011;6898;50.918;4.688;2022-08-25T11:37:57;3.67;;;2.50;;
13649;SDS011;6898;50.918;4.688;2022-08-25T11:40:34;4.07;;;2.55;;
13649;SDS011;6898;50.918;4.688;2022-08-25T11:43:08;5.77;;;2.37;;
13649;SDS011;6898;50.918;4.688;2022-08-25T11:45:44;4.97;;;2.50;;
13649;SDS011;6898;50.918;4.688;2022-08-25T11:48:19;4.00;;;2.50;;
13649;SDS011;6898;50.918;4.688;2022-08-25T11:51:01;3.50;;;2.35;;
13649;SDS011;6898;50.918;4.688;2022-08-25T11:53:31;4.07;;;2.50;;
13649;SDS011;6898;50.918;4.688;2022-08-25T11:56:01;13.90;;;3.13;;
13649;SDS011;6898;50.918;4.688;2022-08-25T11:58:41;5.30;;;2.47;;
13649;SDS011;6898;50.918;4.688;2022-08-25T12:01:59;3.47;;;2.40;;
13649;SDS011;6898;50.918;4.688;2022-08-25T12:10:06;4.65;;;2.55;;
13649;SDS011;6898;50.918;4.688;2022-08-25T12:12:37;3.78;;;2.50;;
13649;SDS011;6898;50.918;4.688;2022-08-25T12:15:12;3.83;;;2.58;;
13649;SDS011;6898;50.918;4.688;2022-08-25T12:17:41;3.63;;;2.70;;
13649;SDS011;6898;50.918;4.688;2022-08-25T12:20:10;4.75;;;2.80;;
13649;SDS011;6898;50.918;4.688;2022-08-25T12:22:40;4.40;;;2.80;;
13649;SDS011;6898;50.918;4.688;2022-08-25T12:28:05;6.05;;;2.85;;
13649;SDS011;6898;50.918;4.688;2022-08-25T12:30:39;3.87;;;2.50;;
13649;SDS011;6898;50.918;4.688;2022-08-25T12:33:11;3.88;;;2.70;;
13649;SDS011;6898;50.918;4.688;2022-08-25T12:35:49;5.15;;;2.60;;
13649;SDS011;6898;50.918;4.688;2022-08-25T12:38:26;4.22;;;2.65;;
13649;SDS011;6898;50.918;4.688;2022-08-25T12:40:57;7.03;;;2.60;;
13649;SDS011;6898;50.918;4.688;2022-08-25T12:43:30;5.88;;;2.53;;
13649;SDS011;6898;50.918;4.688;2022-08-25T12:48:53;4.45;;;2.70;;
13649;SDS011;6898;50.918;4.688;2022-08-25T12:51:23;6.80;;;2.67;;
13649;SDS011;6898;50.918;4.688;2022-08-25T12:53:52;3.45;;;2.50;;
13649;SDS011;6898;50.918;4.688;2022-08-25T12:56:24;5.50;;;2.60;;
13649;SDS011;6898;50.918;4.688;2022-08-25T12:59:00;5.53;;;2.50;;
13649;SDS011;6898;50.918;4.688;2022-08-25T13:01:32;4.30;;;2.50;;
13649;SDS011;6898;50.918;4.688;2022-08-25T13:04:13;6.18;;;2.60;;
13649;SDS011;6898;50.918;4.688;2022-08-25T13:06:52;4.18;;;2.40;;
13649;SDS011;6898;50.918;4.688;2022-08-25T13:09:26;6.90;;;2.60;;
13649;SDS011;6898;50.918;4.688;2022-08-25T13:12:01;5.37;;;2.90;;
13649;SDS011;6898;50.918;4.688;2022-08-25T13:14:35;4.60;;;2.75;;
13649;SDS011;6898;50.918;4.688;2022-08-25T13:17:05;4.50;;;2.80;;
13649;SDS011;6898;50.918;4.688;2022-08-25T13:19:34;6.18;;;2.90;;
13649;SDS011;6898;50.918;4.688;2022-08-25T13:22:03;6.30;;;2.90;;
13649;SDS011;6898;50.918;4.688;2022-08-25T13:24:40;6.63;;;2.83;;
13649;SDS011;6898;50.918;4.688;2022-08-25T13:27:16;8.13;;;3.00;;
13649;SDS011;6898;50.918;4.688;2022-08-25T13:29:50;3.83;;;2.60;;
13649;SDS011;6898;50.918;4.688;2022-08-25T13:32:24;4.30;;;2.70;;
13649;SDS011;6898;50.918;4.688;2022-08-25T13:34:54;4.85;;;2.80;;
13649;SDS011;6898;50.918;4.688;2022-08-25T13:37:34;4.45;;;2.67;;
13649;SDS011;6898;50.918;4.688;2022-08-25T13:40:10;6.82;;;3.10;;
13649;SDS011;6898;50.918;4.688;2022-08-25T13:42:42;4.60;;;2.83;;
13649;SDS011;6898;50.918;4.688;2022-08-25T13:45:14;4.60;;;2.80;;
13649;SDS011;6898;50.918;4.688;2022-08-25T13:47:44;3.42;;;2.63;;
13649;SDS011;6898;50.918;4.688;2022-08-25T13:50:14;4.22;;;2.78;;
13649;SDS011;6898;50.918;4.688;2022-08-25T13:52:45;4.85;;;2.70;;
13649;SDS011;6898;50.918;4.688;2022-08-25T13:55:18;4.38;;;2.75;;
13649;SDS011;6898;50.918;4.688;2022-08-25T13:57:47;4.47;;;2.70;;
13649;SDS011;6898;50.918;4.688;2022-08-25T14:00:25;5.33;;;2.60;;
13649;SDS011;6898;50.918;4.688;2022-08-25T14:02:54;4.30;;;2.80;;
13649;SDS011;6898;50.918;4.688;2022-08-25T14:05:30;4.95;;;2.70;;
13649;SDS011;6898;50.918;4.688;2022-08-25T14:07:59;3.75;;;2.80;;
13649;SDS011;6898;50.918;4.688;2022-08-25T14:10:36;8.23;;;2.97;;
13649;SDS011;6898;50.918;4.688;2022-08-25T14:13:13;7.13;;;3.03;;
13649;SDS011;6898;50.918;4.688;2022-08-25T14:15:43;4.70;;;2.80;;
13649;SDS011;6898;50.918;4.688;2022-08-25T14:18:13;5.03;;;2.80;;
13649;SDS011;6898;50.918;4.688;2022-08-25T14:20:46;5.07;;;2.70;;
13649;SDS011;6898;50.918;4.688;2022-08-25T14:23:16;6.37;;;2.90;;
13649;SDS011;6898;50.918;4.688;2022-08-25T14:25:46;6.25;;;2.70;;
13649;SDS011;6898;50.918;4.688;2022-08-25T14:28:17;4.78;;;2.70;;
13649;SDS011;6898;50.918;4.688;2022-08-25T14:30:48;3.80;;;2.80;;
13649;SDS011;6898;50.918;4.688;2022-08-25T14:33:18;4.57;;;2.80;;
13649;SDS011;6898;50.918;4.688;2022-08-25T14:35:47;6.10;;;2.67;;
13649;SDS011;6898;50.918;4.688;2022-08-25T14:38:17;4.20;;;2.70;;
13649;SDS011;6898;50.918;4.688;2022-08-25T14:40:46;5.50;;;2.60;;
13649;SDS011;6898;50.918;4.688;2022-08-25T14:43:15;6.10;;;2.55;;
13649;SDS011;6898;50.918;4.688;2022-08-25T14:45:44;8.15;;;2.80;;
13649;SDS011;6898;50.918;4.688;2022-08-25T14:48:17;4.82;;;2.70;;
13649;SDS011;6898;50.918;4.688;2022-08-25T14:50:46;3.83;;;2.60;;
13649;SDS011;6898;50.918;4.688;2022-08-25T14:53:15;5.32;;;2.60;;
13649;SDS011;6898;50.918;4.688;2022-08-25T14:55:43;5.55;;;2.67;;
13649;SDS011;6898;50.918;4.688;2022-08-25T14:58:12;5.05;;;2.75;;
13649;SDS011;6898;50.918;4.688;2022-08-25T15:00:42;7.25;;;3.63;;
13649;SDS011;6898;50.918;4.688;2022-08-25T15:03:11;8.15;;;3.80;;
13649;SDS011;6898;50.918;4.688;2022-08-25T15:05:43;7.68;;;4.40;;
13649;SDS011;6898;50.918;4.688;2022-08-25T15:08:12;8.53;;;4.30;;
13649;SDS011;6898;50.918;4.688;2022-08-25T15:10:58;9.52;;;4.05;;
13649;SDS011;6898;50.918;4.688;2022-08-25T15:13:27;5.78;;;3.80;;
13649;SDS011;6898;50.918;4.688;2022-08-25T15:15:55;9.20;;;4.38;;
13649;SDS011;6898;50.918;4.688;2022-08-25T15:18:24;6.30;;;4.22;;
13649;SDS011;6898;50.918;4.688;2022-08-25T15:20:54;7.60;;;4.43;;
13649;SDS011;6898;50.918;4.688;2022-08-25T15:23:22;7.55;;;4.47;;
13649;SDS011;6898;50.918;4.688;2022-08-25T15:25:51;9.05;;;4.50;;
13649;SDS011;6898;50.918;4.688;2022-08-25T15:28:21;10.75;;;4.70;;
13649;SDS011;6898;50.918;4.688;2022-08-25T15:30:49;10.77;;;4.90;;
13649;SDS011;6898;50.918;4.688;2022-08-25T15:33:18;7.93;;;4.20;;
13649;SDS011;6898;50.918;4.688;2022-08-25T15:35:48;11.43;;;4.45;;
13649;SDS011;6898;50.918;4.688;2022-08-25T15:38:17;9.77;;;4.57;;